WAT6001 LROP-LPMA
Flight info
| Callsign | WAT6001 |
|---|---|
| Flight time | N/A |
| Altitude | 36000 |
| Route | POLUN DCT ANASA DCT DAROJ DCT SONIK DCT BAXON/N0453F350 DCT TIPNI DCT OKTAV DCT IXITO DCT BORDI DCT KOLON DCT DIVKO/N0453F370 DCT ELVAR DCT ESP DCT RAKUN |
| Aircraft | B38M/M-SDE1FGHILORVWXY/HB1 |
Departure
| Time | 2026-05-07 16:00 |
|---|---|
| Airport | Bucharest Henri Coandă International Airport (LROP) |
Arrival
| Time | N/A |
|---|---|
| Airport | Cristiano Ronaldo International Airport (LPMA) |
| Time | Latitude | Longitude | Altitude | Speed | Heading |
|---|---|---|---|---|---|
| 2026-05-07 15:28 | 44.57016 | 26.08134 | 324 ft | 0 kts | 354° |
| 2026-05-07 15:52 | 44.57010 | 26.08135 | 325 ft | 4 kts | 354° |
| 2026-05-07 15:52 | 44.56984 | 26.08139 | 322 ft | 4 kts | 356° |
| 2026-05-07 15:52 | 44.56958 | 26.08136 | 323 ft | 4 kts | 21° |
| 2026-05-07 15:52 | 44.56938 | 26.08116 | 321 ft | 4 kts | 63° |
| 2026-05-07 15:53 | 44.56934 | 26.08095 | 322 ft | 1 kts | 84° |
| 2026-05-07 15:53 | 44.56933 | 26.08092 | 325 ft | 0 kts | 84° |
| 2026-05-07 15:55 | 44.56933 | 26.08093 | 325 ft | 1 kts | 84° |
| 2026-05-07 15:55 | 44.56935 | 26.08111 | 322 ft | 4 kts | 84° |
| 2026-05-07 15:56 | 44.56938 | 26.08155 | 322 ft | 5 kts | 84° |
| 2026-05-07 15:56 | 44.56943 | 26.08228 | 325 ft | 9 kts | 84° |
| 2026-05-07 15:56 | 44.56951 | 26.08332 | 325 ft | 12 kts | 82° |
| 2026-05-07 15:56 | 44.57010 | 26.08388 | 323 ft | 11 kts | 357° |
| 2026-05-07 15:57 | 44.57087 | 26.08378 | 322 ft | 12 kts | 354° |
| 2026-05-07 15:57 | 44.57174 | 26.08365 | 324 ft | 13 kts | 354° |
| 2026-05-07 15:57 | 44.57229 | 26.08420 | 325 ft | 10 kts | 82° |
| 2026-05-07 15:57 | 44.57252 | 26.08496 | 322 ft | 5 kts | 20° |
| 2026-05-07 15:58 | 44.57290 | 26.08496 | 322 ft | 7 kts | 354° |
| 2026-05-07 15:58 | 44.57368 | 26.08485 | 323 ft | 16 kts | 354° |
| 2026-05-07 15:58 | 44.57506 | 26.08465 | 324 ft | 19 kts | 354° |
| 2026-05-07 15:58 | 44.57644 | 26.08456 | 325 ft | 17 kts | 18° |
| 2026-05-07 15:59 | 44.57667 | 26.08484 | 324 ft | 0 kts | 84° |
| 2026-05-07 15:59 | 44.57668 | 26.08506 | 324 ft | 12 kts | 86° |
| 2026-05-07 15:59 | 44.57702 | 26.08969 | 325 ft | 82 kts | 84° |
| 2026-05-07 15:59 | 44.57784 | 26.10062 | 321 ft | 140 kts | 84° |
| 2026-05-07 16:00 | 44.57905 | 26.11631 | 439 ft | 175 kts | 84° |
| 2026-05-07 16:00 | 44.58004 | 26.13377 | 1000 ft | 182 kts | 85° |
| 2026-05-07 16:00 | 44.58195 | 26.15187 | 1578 ft | 194 kts | 83° |
| 2026-05-07 16:00 | 44.58412 | 26.17068 | 2206 ft | 203 kts | 84° |
| 2026-05-07 16:01 | 44.58626 | 26.19184 | 2482 ft | 231 kts | 85° |
| 2026-05-07 16:01 | 44.58811 | 26.21462 | 3161 ft | 240 kts | 86° |
| 2026-05-07 16:01 | 44.58965 | 26.23853 | 3841 ft | 248 kts | 87° |
| 2026-05-07 16:01 | 44.59115 | 26.26289 | 4592 ft | 256 kts | 87° |
| 2026-05-07 16:02 | 44.59146 | 26.28789 | 5314 ft | 261 kts | 101° |
| 2026-05-07 16:02 | 44.58459 | 26.31197 | 5811 ft | 275 kts | 128° |
| 2026-05-07 16:02 | 44.57021 | 26.32947 | 6533 ft | 273 kts | 156° |
| 2026-05-07 16:02 | 44.55206 | 26.33711 | 7289 ft | 276 kts | 174° |
| 2026-05-07 16:03 | 44.53289 | 26.34061 | 8071 ft | 279 kts | 175° |
| 2026-05-07 16:03 | 44.51350 | 26.34389 | 8837 ft | 284 kts | 175° |
| 2026-05-07 16:03 | 44.49373 | 26.34703 | 9608 ft | 287 kts | 176° |
| 2026-05-07 16:03 | 44.47370 | 26.35008 | 10290 ft | 293 kts | 176° |
| 2026-05-07 16:04 | 44.45280 | 26.35318 | 10614 ft | 312 kts | 176° |
| 2026-05-07 16:04 | 44.43056 | 26.35642 | 10930 ft | 329 kts | 176° |
| 2026-05-07 16:04 | 44.40737 | 26.35714 | 11391 ft | 335 kts | 193° |
| 2026-05-07 16:04 | 44.38623 | 26.34467 | 12137 ft | 333 kts | 218° |
| 2026-05-07 16:05 | 44.37036 | 26.32096 | 12724 ft | 337 kts | 238° |
| 2026-05-07 16:05 | 44.36087 | 26.29100 | 13433 ft | 341 kts | 256° |
| 2026-05-07 16:05 | 44.35883 | 26.25791 | 14060 ft | 345 kts | 271° |
| 2026-05-07 16:05 | 44.35909 | 26.22401 | 14613 ft | 351 kts | 269° |
| 2026-05-07 16:06 | 44.35914 | 26.18994 | 15332 ft | 351 kts | 270° |
| 2026-05-07 16:06 | 44.35923 | 26.15561 | 15919 ft | 355 kts | 269° |
| 2026-05-07 16:06 | 44.35930 | 26.12098 | 16577 ft | 358 kts | 270° |
| 2026-05-07 16:06 | 44.35934 | 26.08605 | 17152 ft | 361 kts | 269° |
| 2026-05-07 16:07 | 44.35938 | 26.05083 | 17759 ft | 364 kts | 270° |
| 2026-05-07 16:07 | 44.35940 | 26.01527 | 18342 ft | 367 kts | 269° |
| 2026-05-07 16:07 | 44.35942 | 25.97950 | 18849 ft | 370 kts | 270° |
| 2026-05-07 16:07 | 44.35944 | 25.94348 | 19354 ft | 372 kts | 270° |
| 2026-05-07 16:08 | 44.35944 | 25.90769 | 19845 ft | 375 kts | 270° |
| 2026-05-07 16:08 | 44.35944 | 25.87064 | 20321 ft | 378 kts | 269° |
| 2026-05-07 16:08 | 44.35940 | 25.83421 | 20777 ft | 381 kts | 269° |
| 2026-05-07 16:08 | 44.35938 | 25.79704 | 21269 ft | 384 kts | 269° |
| 2026-05-07 16:09 | 44.35934 | 25.75963 | 21741 ft | 386 kts | 269° |
| 2026-05-07 16:09 | 44.35927 | 25.72202 | 22213 ft | 389 kts | 269° |
| 2026-05-07 16:09 | 44.35921 | 25.68408 | 22673 ft | 392 kts | 269° |
| 2026-05-07 16:09 | 44.35913 | 25.64593 | 23132 ft | 394 kts | 269° |
| 2026-05-07 16:10 | 44.35903 | 25.60752 | 23578 ft | 397 kts | 269° |
| 2026-05-07 16:10 | 44.35892 | 25.56880 | 23951 ft | 399 kts | 269° |
| 2026-05-07 16:10 | 44.35879 | 25.52993 | 24330 ft | 401 kts | 269° |
| 2026-05-07 16:10 | 44.35867 | 25.49079 | 24704 ft | 403 kts | 269° |
| 2026-05-07 16:11 | 44.35854 | 25.45156 | 25076 ft | 406 kts | 269° |
| 2026-05-07 16:11 | 44.35838 | 25.41201 | 25430 ft | 408 kts | 269° |
| 2026-05-07 16:11 | 44.35821 | 25.37230 | 25786 ft | 410 kts | 269° |
| 2026-05-07 16:11 | 44.35802 | 25.33233 | 26134 ft | 412 kts | 269° |
| 2026-05-07 16:12 | 44.35789 | 25.30572 | 26367 ft | 414 kts | 269° |
| 2026-05-07 16:12 | 44.35769 | 25.26546 | 26707 ft | 416 kts | 269° |
| 2026-05-07 16:12 | 44.35747 | 25.22495 | 27046 ft | 418 kts | 269° |
| 2026-05-07 16:12 | 44.35723 | 25.18428 | 27377 ft | 420 kts | 269° |
| 2026-05-07 16:13 | 44.35698 | 25.14344 | 27699 ft | 422 kts | 269° |
| 2026-05-07 16:13 | 44.35671 | 25.10238 | 28017 ft | 424 kts | 269° |
| 2026-05-07 16:13 | 44.35642 | 25.06099 | 28338 ft | 426 kts | 269° |
| 2026-05-07 16:13 | 44.35609 | 25.01964 | 28714 ft | 426 kts | 268° |
| 2026-05-07 16:14 | 44.35577 | 24.97837 | 29168 ft | 425 kts | 268° |